createdAt,value
2017-11-30T00:01:29.993Z,-0.23
2017-11-30T00:03:56.432Z,-0.25
2017-11-30T00:06:22.850Z,-0.31
2017-11-30T00:08:49.268Z,-0.35
2017-11-30T00:11:15.707Z,-0.39
2017-11-30T00:13:42.151Z,-0.44
2017-11-30T00:16:08.821Z,-0.48
2017-11-30T00:18:35.460Z,-0.60
2017-11-30T00:21:01.964Z,-0.57
2017-11-30T00:23:28.391Z,-0.57
2017-11-30T00:25:54.836Z,-0.53
2017-11-30T00:28:21.250Z,-0.56
2017-11-30T00:30:47.635Z,-0.62
2017-11-30T00:33:14.078Z,-0.64
2017-11-30T00:35:40.700Z,-0.62
2017-11-30T00:38:07.216Z,-0.58
2017-11-30T00:40:33.772Z,-0.62
2017-11-30T00:43:00.400Z,-0.61
2017-11-30T00:45:27.046Z,-0.62
2017-11-30T00:47:53.265Z,-0.63
2017-11-30T00:50:19.914Z,-0.60
2017-11-30T00:52:46.342Z,-0.57
2017-11-30T00:55:12.957Z,-0.54
2017-11-30T00:57:39.377Z,-0.58
2017-11-30T01:00:06.043Z,-0.55
2017-11-30T01:02:32.458Z,-0.49
2017-11-30T01:04:58.874Z,-0.51
2017-11-30T01:07:25.317Z,-0.38
2017-11-30T01:09:51.761Z,-0.39
2017-11-30T01:12:18.020Z,-0.36
2017-11-30T01:14:44.437Z,-0.36
2017-11-30T01:17:10.685Z,-0.35
2017-11-30T01:19:37.121Z,-0.28
2017-11-30T01:22:03.550Z,-0.28
2017-11-30T01:24:30.152Z,-0.30
2017-11-30T01:26:56.575Z,-0.28
2017-11-30T01:29:23.240Z,-0.22
2017-11-30T01:31:49.659Z,-0.31
2017-11-30T01:34:16.074Z,-0.30
2017-11-30T01:36:42.515Z,-0.39
2017-11-30T01:39:08.796Z,-0.49
2017-11-30T01:41:35.217Z,-0.57
2017-11-30T01:44:01.844Z,-0.61
2017-11-30T01:46:28.092Z,-0.57
2017-11-30T01:48:54.800Z,-0.59
2017-11-30T01:51:21.217Z,-0.55
2017-11-30T01:53:47.666Z,-0.48
2017-11-30T01:56:14.068Z,-0.36
2017-11-30T01:58:40.466Z,-0.32
2017-11-30T02:01:07.100Z,-0.31
2017-11-30T02:03:33.721Z,-0.30
2017-11-30T02:05:59.985Z,-0.20
2017-11-30T02:08:26.399Z,-0.07
2017-11-30T02:10:52.798Z,-0.02
2017-11-30T02:13:19.067Z,-0.05
2017-11-30T02:15:45.557Z,0.13
2017-11-30T02:18:11.998Z,0.23
2017-11-30T02:20:38.417Z,0.32
2017-11-30T02:23:04.856Z,0.35
2017-11-30T02:25:31.299Z,0.21
2017-11-30T02:27:57.665Z,0.20
2017-11-30T02:30:24.282Z,0.16
2017-11-30T02:32:50.697Z,0.08
2017-11-30T02:35:17.340Z,0.09
2017-11-30T02:37:43.784Z,0.06
2017-11-30T02:40:10.232Z,-0.03
2017-11-30T02:42:36.519Z,-0.10
2017-11-30T02:45:02.989Z,-0.20
2017-11-30T02:47:29.499Z,-0.28
2017-11-30T02:49:56.163Z,-0.30
2017-11-30T02:52:22.588Z,-0.29
2017-11-30T02:54:48.997Z,-0.31
2017-11-30T02:57:15.671Z,-0.31
2017-11-30T02:59:42.051Z,-0.34
2017-11-30T03:02:08.498Z,-0.28
2017-11-30T03:04:34.940Z,-0.23
2017-11-30T03:07:01.212Z,-0.16
2017-11-30T03:09:27.821Z,-0.10
2017-11-30T03:11:54.218Z,-0.12
2017-11-30T03:14:20.686Z,-0.18
2017-11-30T03:16:47.099Z,-0.24
2017-11-30T03:19:13.541Z,-0.26
2017-11-30T03:21:40.224Z,-0.21
2017-11-30T03:24:06.862Z,-0.19
2017-11-30T03:26:33.462Z,-0.09
2017-11-30T03:29:00.136Z,0.06
2017-11-30T03:31:26.772Z,0.32
2017-11-30T03:33:53.208Z,0.43
2017-11-30T03:36:19.649Z,0.50
2017-11-30T03:38:46.279Z,0.65
2017-11-30T03:41:12.890Z,0.77
2017-11-30T03:43:39.331Z,0.69
2017-11-30T03:46:05.580Z,0.61
2017-11-30T03:48:32.064Z,0.58
2017-11-30T03:50:58.655Z,0.63
2017-11-30T03:53:25.147Z,0.58
2017-11-30T03:55:51.682Z,0.93
2017-11-30T03:58:18.104Z,1.15
2017-11-30T04:00:44.448Z,1.04
2017-11-30T04:03:10.857Z,1.26
2017-11-30T04:05:37.309Z,1.21
2017-11-30T04:08:03.745Z,1.63
2017-11-30T04:10:30.190Z,1.67
2017-11-30T04:12:56.631Z,1.90
2017-11-30T04:15:23.148Z,1.88
2017-11-30T04:17:49.588Z,1.82
2017-11-30T04:20:16.036Z,2.01
2017-11-30T04:22:42.471Z,2.39
2017-11-30T04:25:09.130Z,3.07
2017-11-30T04:27:35.753Z,3.43
2017-11-30T04:30:02.143Z,3.66
2017-11-30T04:32:28.587Z,3.74
2017-11-30T04:34:55.073Z,3.99
2017-11-30T04:37:21.711Z,3.96
2017-11-30T04:39:48.014Z,4.09
2017-11-30T04:42:14.431Z,4.54
2017-11-30T04:44:40.871Z,4.63
2017-11-30T04:47:07.389Z,5.05
2017-11-30T04:49:33.830Z,5.38
2017-11-30T04:52:00.245Z,5.33
2017-11-30T04:54:26.712Z,5.66
2017-11-30T04:56:53.131Z,6.18
2017-11-30T04:59:19.571Z,6.64
2017-11-30T05:01:46.245Z,7.20
2017-11-30T05:04:13.053Z,7.49
2017-11-30T05:06:39.498Z,7.79
2017-11-30T05:09:06.163Z,8.01
2017-11-30T05:11:32.801Z,8.16
2017-11-30T05:13:59.148Z,8.39
2017-11-30T05:16:25.614Z,8.49
2017-11-30T05:18:52.056Z,8.57
2017-11-30T05:21:18.398Z,8.72
2017-11-30T05:23:44.837Z,8.86
2017-11-30T05:26:11.402Z,8.98
2017-11-30T05:28:38.021Z,9.13
2017-11-30T05:31:04.678Z,9.18
2017-11-30T05:33:31.316Z,9.20
2017-11-30T05:35:58.161Z,9.16
2017-11-30T05:38:24.804Z,9.22
2017-11-30T05:40:51.281Z,9.31
2017-11-30T05:43:17.661Z,9.33
2017-11-30T05:45:44.291Z,9.36
2017-11-30T05:48:10.940Z,9.44
2017-11-30T05:50:37.576Z,9.54
2017-11-30T05:53:04.066Z,9.63
2017-11-30T05:55:30.650Z,9.79
2017-11-30T05:57:57.092Z,9.85
2017-11-30T06:00:23.564Z,9.88
2017-11-30T06:02:50.015Z,10.09
2017-11-30T06:05:16.453Z,10.24
2017-11-30T06:07:42.965Z,10.25
2017-11-30T06:10:09.314Z,10.35
2017-11-30T06:12:35.750Z,10.43
2017-11-30T06:15:02.166Z,10.51
2017-11-30T06:17:28.714Z,10.55
2017-11-30T06:19:55.151Z,10.60
2017-11-30T06:22:21.816Z,10.56
2017-11-30T06:24:48.463Z,10.58
2017-11-30T06:27:15.079Z,10.59
2017-11-30T06:29:41.740Z,10.63
2017-11-30T06:32:08.175Z,10.79
2017-11-30T06:34:34.675Z,10.82
2017-11-30T06:37:01.116Z,10.84
2017-11-30T06:39:27.482Z,10.86
2017-11-30T06:41:54.114Z,10.86
2017-11-30T06:44:20.421Z,10.89
2017-11-30T06:46:46.834Z,10.86
2017-11-30T06:49:13.276Z,10.94
2017-11-30T06:51:39.793Z,10.89
2017-11-30T06:54:06.231Z,11.11
2017-11-30T06:56:32.714Z,11.39
2017-11-30T06:58:59.353Z,11.32
2017-11-30T07:01:25.989Z,11.35
2017-11-30T07:03:52.601Z,11.29
2017-11-30T07:06:19.266Z,11.14
2017-11-30T07:08:45.712Z,11.32
2017-11-30T07:11:12.072Z,11.44
2017-11-30T07:13:38.519Z,11.36
2017-11-30T07:16:04.957Z,11.32
2017-11-30T07:18:31.404Z,11.39
2017-11-30T07:20:57.845Z,11.30
2017-11-30T07:23:24.287Z,11.34
2017-11-30T07:25:50.802Z,11.40
2017-11-30T07:28:17.283Z,11.47
2017-11-30T07:30:43.723Z,11.52
2017-11-30T07:33:10.212Z,11.58
2017-11-30T07:35:36.747Z,11.60
2017-11-30T07:38:03.024Z,11.38
2017-11-30T07:40:29.621Z,11.42
2017-11-30T07:42:56.294Z,11.42
2017-11-30T07:45:22.908Z,11.52
2017-11-30T07:47:49.330Z,11.47
2017-11-30T07:50:16.004Z,11.54
2017-11-30T07:52:42.538Z,11.60
2017-11-30T07:55:08.930Z,11.65
2017-11-30T07:57:35.371Z,11.77
2017-11-30T08:00:01.813Z,11.80
2017-11-30T08:02:28.231Z,11.83
2017-11-30T08:04:54.673Z,11.91
2017-11-30T08:07:21.201Z,11.85
2017-11-30T08:09:47.629Z,11.92
2017-11-30T08:12:14.067Z,12.06
2017-11-30T08:14:40.491Z,12.20
2017-11-30T08:17:06.933Z,12.30
2017-11-30T08:19:33.615Z,12.33
2017-11-30T08:22:00.236Z,12.42
2017-11-30T08:24:26.680Z,12.56
2017-11-30T08:26:53.326Z,12.65
2017-11-30T08:29:19.963Z,12.90
2017-11-30T08:31:46.459Z,12.83
2017-11-30T08:34:13.037Z,13.12
2017-11-30T08:36:39.263Z,13.44
2017-11-30T08:39:05.908Z,13.61
2017-11-30T08:41:32.400Z,13.64
2017-11-30T08:43:58.840Z,13.60
2017-11-30T08:46:25.258Z,13.46
2017-11-30T08:48:51.799Z,13.35
2017-11-30T08:51:18.218Z,13.41
2017-11-30T08:53:44.560Z,13.51
2017-11-30T08:56:11.001Z,13.63
2017-11-30T08:58:37.577Z,13.75
2017-11-30T09:01:04.183Z,13.75
2017-11-30T09:03:30.845Z,13.82
2017-11-30T09:05:57.491Z,13.83
2017-11-30T09:08:23.713Z,14.00
2017-11-30T09:10:50.355Z,14.06
2017-11-30T09:13:16.842Z,13.89
2017-11-30T09:15:43.286Z,13.82
2017-11-30T09:18:09.828Z,13.75
2017-11-30T09:20:36.243Z,13.71
2017-11-30T09:23:02.687Z,13.73
2017-11-30T09:25:29.190Z,13.88
2017-11-30T09:27:55.644Z,13.88
2017-11-30T09:30:22.089Z,14.01
2017-11-30T09:32:48.629Z,13.94
2017-11-30T09:35:15.071Z,13.82
2017-11-30T09:37:41.489Z,13.93
2017-11-30T09:40:07.968Z,13.96
2017-11-30T09:42:34.618Z,14.09
2017-11-30T09:45:01.142Z,13.96
2017-11-30T09:47:27.752Z,14.11
2017-11-30T09:49:54.007Z,14.12
2017-11-30T09:52:20.519Z,14.09
2017-11-30T09:54:46.874Z,14.04
2017-11-30T09:57:13.494Z,14.47
2017-11-30T09:59:39.889Z,14.71
2017-11-30T10:02:06.133Z,14.77
2017-11-30T10:04:32.428Z,14.57
2017-11-30T10:06:58.837Z,14.95
2017-11-30T10:09:25.453Z,15.69
2017-11-30T10:11:51.870Z,15.48
2017-11-30T10:14:18.290Z,15.12
2017-11-30T10:16:44.981Z,15.10
2017-11-30T10:19:11.474Z,15.29
2017-11-30T10:21:37.915Z,15.46
2017-11-30T10:24:04.458Z,15.67
2017-11-30T10:26:30.897Z,15.49
2017-11-30T10:28:57.356Z,15.21
2017-11-30T10:31:23.957Z,15.16
2017-11-30T10:33:50.375Z,15.19
2017-11-30T10:36:16.818Z,15.00
2017-11-30T10:38:43.500Z,14.83
2017-11-30T10:41:10.124Z,14.77
2017-11-30T10:43:36.773Z,14.66
2017-11-30T10:46:03.261Z,14.52
2017-11-30T10:48:29.698Z,14.36
2017-11-30T10:50:55.927Z,14.30
2017-11-30T10:53:22.193Z,14.30
2017-11-30T10:55:48.443Z,14.50
2017-11-30T10:58:14.771Z,14.54
2017-11-30T11:00:41.404Z,14.48
2017-11-30T11:03:08.024Z,14.55
2017-11-30T11:05:34.995Z,14.61
2017-11-30T11:08:01.338Z,14.41
2017-11-30T11:10:27.569Z,14.53
2017-11-30T11:12:53.793Z,14.70
2017-11-30T11:15:20.076Z,14.68
2017-11-30T11:17:46.297Z,14.52
2017-11-30T11:20:12.644Z,14.56
2017-11-30T11:22:38.924Z,14.47
2017-11-30T11:25:05.153Z,14.57
2017-11-30T11:27:31.379Z,14.47
2017-11-30T11:29:57.644Z,14.42
2017-11-30T11:32:23.872Z,14.30
2017-11-30T11:34:50.099Z,14.23
2017-11-30T11:37:16.366Z,14.34
2017-11-30T11:39:42.695Z,14.41
2017-11-30T11:42:09.520Z,14.51
2017-11-30T11:44:36.179Z,14.56
2017-11-30T11:47:02.712Z,14.43
2017-11-30T11:49:29.125Z,14.50
2017-11-30T11:51:55.640Z,14.52
2017-11-30T11:54:22.113Z,14.49
2017-11-30T11:56:48.755Z,14.52
2017-11-30T11:59:15.402Z,14.51
2017-11-30T12:01:41.908Z,14.58
2017-11-30T12:04:08.324Z,14.65
2017-11-30T12:06:34.768Z,14.68
2017-11-30T12:09:01.283Z,14.56
2017-11-30T12:11:27.564Z,14.62
2017-11-30T12:13:54.192Z,14.72
2017-11-30T12:16:20.805Z,14.76
2017-11-30T12:18:47.226Z,14.92
2017-11-30T12:21:13.907Z,14.93
2017-11-30T12:23:40.552Z,14.94
2017-11-30T12:26:07.052Z,14.98
2017-11-30T12:28:33.469Z,14.93
2017-11-30T12:30:59.849Z,14.96
2017-11-30T12:33:26.486Z,14.92
2017-11-30T12:35:53.120Z,14.96
2017-11-30T12:38:19.558Z,14.92
2017-11-30T12:40:46.277Z,14.96
2017-11-30T12:43:12.642Z,14.90
2017-11-30T12:45:39.062Z,14.85
2017-11-30T12:48:05.509Z,14.81
2017-11-30T12:50:31.938Z,14.74
2017-11-30T12:52:58.188Z,14.86
2017-11-30T12:55:24.655Z,14.72
2017-11-30T12:57:51.229Z,14.83
2017-11-30T13:00:17.736Z,14.77
2017-11-30T13:02:44.096Z,14.82
2017-11-30T13:05:10.533Z,14.81
2017-11-30T13:07:37.144Z,14.80
2017-11-30T13:10:03.555Z,14.88
2017-11-30T13:12:30.217Z,14.80
2017-11-30T13:14:56.635Z,14.88
2017-11-30T13:17:23.077Z,14.94
2017-11-30T13:19:49.495Z,14.96
2017-11-30T13:22:15.913Z,15.11
2017-11-30T13:24:42.354Z,15.34
2017-11-30T13:27:08.661Z,15.45
2017-11-30T13:29:35.269Z,15.49
2017-11-30T13:32:01.906Z,15.48
2017-11-30T13:34:28.292Z,15.41
2017-11-30T13:36:54.738Z,15.40
2017-11-30T13:39:21.180Z,15.47
2017-11-30T13:41:47.604Z,15.46
2017-11-30T13:44:14.140Z,15.43
2017-11-30T13:46:40.579Z,15.51
2017-11-30T13:49:06.959Z,15.43
2017-11-30T13:51:33.564Z,15.37
2017-11-30T13:54:00.019Z,15.34
2017-11-30T13:56:26.503Z,15.33
2017-11-30T13:58:53.087Z,15.34
2017-11-30T14:01:19.383Z,15.41
2017-11-30T14:03:45.962Z,15.40
2017-11-30T14:06:12.560Z,15.43
2017-11-30T14:08:38.984Z,15.53
2017-11-30T14:11:05.325Z,15.47
2017-11-30T14:13:31.893Z,15.43
2017-11-30T14:15:58.508Z,15.54
2017-11-30T14:18:25.172Z,15.63
2017-11-30T14:20:51.809Z,15.64
2017-11-30T14:23:18.428Z,15.69
2017-11-30T14:25:45.084Z,15.80
2017-11-30T14:28:11.373Z,15.91
2017-11-30T14:30:37.815Z,16.02
2017-11-30T14:33:04.227Z,16.22
2017-11-30T14:35:30.667Z,16.35
2017-11-30T14:37:57.217Z,16.40
2017-11-30T14:40:23.656Z,16.49
2017-11-30T14:42:50.069Z,16.46
2017-11-30T14:45:16.514Z,16.34
2017-11-30T14:47:42.977Z,16.49
2017-11-30T14:50:09.372Z,16.55
2017-11-30T14:52:35.714Z,16.61
2017-11-30T14:55:02.229Z,16.65
2017-11-30T14:57:28.672Z,16.59
2017-11-30T14:59:55.114Z,16.61
2017-11-30T15:02:21.780Z,16.60
2017-11-30T15:04:48.171Z,16.67
2017-11-30T15:07:14.613Z,16.69
2017-11-30T15:09:41.277Z,16.73
2017-11-30T15:12:07.673Z,16.68
2017-11-30T15:14:34.340Z,16.75
2017-11-30T15:17:01.067Z,16.87
2017-11-30T15:19:27.435Z,16.75
2017-11-30T15:21:53.967Z,16.95
2017-11-30T15:24:20.457Z,17.00
2017-11-30T15:26:46.799Z,16.95
2017-11-30T15:29:13.244Z,16.94
2017-11-30T15:31:39.678Z,16.95
2017-11-30T15:34:06.105Z,17.06
2017-11-30T15:36:32.517Z,17.11
2017-11-30T15:38:59.056Z,17.08
2017-11-30T15:41:25.506Z,17.11
2017-11-30T15:43:51.772Z,17.13
2017-11-30T15:46:18.382Z,17.20
2017-11-30T15:48:44.818Z,17.16
2017-11-30T15:51:11.242Z,17.25
2017-11-30T15:53:37.915Z,17.24
2017-11-30T15:56:04.362Z,17.14
2017-11-30T15:58:30.847Z,17.17
2017-11-30T16:00:57.385Z,17.19
2017-11-30T16:03:24.044Z,17.18
2017-11-30T16:05:50.248Z,17.20
2017-11-30T16:08:16.723Z,17.18
2017-11-30T16:10:43.201Z,17.29
2017-11-30T16:13:09.774Z,17.22
2017-11-30T16:15:36.427Z,17.24
2017-11-30T16:18:02.800Z,17.28
2017-11-30T16:20:29.170Z,17.27
2017-11-30T16:22:55.402Z,17.30
2017-11-30T16:25:21.955Z,17.27
2017-11-30T16:27:48.573Z,17.16
2017-11-30T16:30:15.241Z,17.22
2017-11-30T16:32:41.731Z,17.27
2017-11-30T16:35:08.172Z,17.32
2017-11-30T16:37:34.590Z,17.35
2017-11-30T16:40:01.152Z,17.33
2017-11-30T16:42:27.589Z,17.27
2017-11-30T16:44:54.245Z,17.34
2017-11-30T16:47:20.756Z,17.27
2017-11-30T16:49:47.174Z,17.33
2017-11-30T16:52:13.716Z,17.41
2017-11-30T16:54:40.131Z,17.42
2017-11-30T16:57:06.418Z,17.33
2017-11-30T16:59:33.039Z,17.28
2017-11-30T17:01:59.488Z,17.35
2017-11-30T17:04:25.696Z,17.41
2017-11-30T17:06:52.340Z,17.38
2017-11-30T17:09:18.818Z,17.38
2017-11-30T17:11:45.423Z,17.41
2017-11-30T17:14:12.063Z,17.39
2017-11-30T17:16:38.603Z,17.30
2017-11-30T17:19:05.095Z,17.33
2017-11-30T17:21:31.514Z,17.25
2017-11-30T17:23:57.706Z,17.23
2017-11-30T17:26:24.299Z,17.37
2017-11-30T17:28:50.803Z,17.49
2017-11-30T17:31:17.384Z,17.47
2017-11-30T17:33:44.045Z,17.47
2017-11-30T17:36:10.464Z,17.46
2017-11-30T17:38:36.674Z,17.47
2017-11-30T17:41:02.929Z,17.48
2017-11-30T17:43:29.365Z,17.53
2017-11-30T17:45:55.786Z,17.48
2017-11-30T17:48:22.204Z,17.31
2017-11-30T17:50:48.619Z,17.39
2017-11-30T17:53:15.060Z,17.40
2017-11-30T17:55:41.476Z,17.46
2017-11-30T17:58:07.923Z,17.46
2017-11-30T18:00:34.364Z,17.43
2017-11-30T18:03:00.781Z,17.52
2017-11-30T18:05:27.221Z,17.57
2017-11-30T18:07:53.668Z,17.62
2017-11-30T18:10:20.081Z,17.66
2017-11-30T18:12:46.364Z,17.69
2017-11-30T18:15:12.865Z,17.69
2017-11-30T18:17:39.281Z,17.66
2017-11-30T18:20:05.727Z,17.62
2017-11-30T18:22:32.164Z,17.68
2017-11-30T18:24:58.527Z,17.70
2017-11-30T18:27:25.151Z,17.69
2017-11-30T18:29:51.398Z,17.71
2017-11-30T18:32:17.833Z,17.68
2017-11-30T18:34:44.266Z,17.62
2017-11-30T18:37:10.894Z,17.68
2017-11-30T18:39:37.309Z,17.66
2017-11-30T18:42:03.974Z,17.70
2017-11-30T18:44:30.370Z,17.67
2017-11-30T18:46:56.638Z,17.67
2017-11-30T18:49:23.097Z,17.69
2017-11-30T18:51:49.492Z,17.66
2017-11-30T18:54:15.988Z,17.66
2017-11-30T18:56:42.367Z,17.67
2017-11-30T18:59:08.993Z,17.65
2017-11-30T19:01:35.229Z,17.63
2017-11-30T19:04:01.668Z,17.58
2017-11-30T19:06:27.893Z,17.62
2017-11-30T19:08:54.366Z,17.62
2017-11-30T19:11:20.830Z,17.64
2017-11-30T19:13:47.400Z,17.72
2017-11-30T19:16:13.838Z,17.73
2017-11-30T19:18:40.408Z,17.79
2017-11-30T19:21:06.911Z,17.88
2017-11-30T19:23:33.517Z,17.85
2017-11-30T19:25:59.756Z,17.82
2017-11-30T19:28:26.080Z,17.84
2017-11-30T19:30:52.643Z,17.87
2017-11-30T19:33:19.259Z,17.80
2017-11-30T19:35:45.672Z,17.86
2017-11-30T19:38:12.100Z,17.83
2017-11-30T19:40:38.786Z,17.87
2017-11-30T19:43:05.236Z,17.91
2017-11-30T19:45:31.655Z,17.86
2017-11-30T19:47:58.261Z,17.84
2017-11-30T19:50:24.700Z,17.90
2017-11-30T19:52:51.138Z,17.86
2017-11-30T19:55:17.796Z,17.87
2017-11-30T19:57:44.035Z,17.93
2017-11-30T20:00:10.645Z,17.98
2017-11-30T20:02:37.301Z,17.93
2017-11-30T20:05:03.940Z,17.92
2017-11-30T20:07:30.376Z,17.99
2017-11-30T20:09:56.983Z,17.95
2017-11-30T20:12:23.290Z,17.95
2017-11-30T20:14:49.641Z,17.91
2017-11-30T20:17:16.309Z,17.90
2017-11-30T20:19:42.539Z,17.97
2017-11-30T20:22:08.976Z,17.96
2017-11-30T20:24:35.590Z,17.90
2017-11-30T20:27:01.839Z,17.94
2017-11-30T20:29:28.094Z,17.99
2017-11-30T20:31:54.564Z,18.02
2017-11-30T20:34:21.086Z,18.00
2017-11-30T20:36:47.424Z,18.00
2017-11-30T20:39:13.867Z,18.03
2017-11-30T20:41:40.440Z,18.02
2017-11-30T20:44:06.667Z,17.97
2017-11-30T20:46:33.103Z,18.03
2017-11-30T20:48:59.366Z,18.03
2017-11-30T20:51:25.791Z,18.06
2017-11-30T20:53:52.397Z,18.10
2017-11-30T20:56:18.833Z,18.09
2017-11-30T20:58:45.125Z,18.08
2017-11-30T21:01:11.547Z,18.08
2017-11-30T21:03:38.139Z,18.13
2017-11-30T21:06:04.566Z,18.20
2017-11-30T21:08:31.191Z,18.18
2017-11-30T21:10:57.589Z,18.31
2017-11-30T21:13:23.930Z,18.30
2017-11-30T21:15:50.346Z,18.28
2017-11-30T21:18:16.789Z,18.28
2017-11-30T21:20:43.159Z,18.31
2017-11-30T21:23:09.594Z,18.30
2017-11-30T21:25:35.984Z,18.34
2017-11-30T21:28:02.468Z,18.31
2017-11-30T21:30:29.076Z,18.42
2017-11-30T21:32:55.486Z,18.43
2017-11-30T21:35:21.701Z,18.41
2017-11-30T21:37:47.993Z,18.42
2017-11-30T21:40:14.431Z,18.45
2017-11-30T21:42:40.669Z,18.39
2017-11-30T21:45:07.150Z,18.44
2017-11-30T21:47:33.520Z,18.37
2017-11-30T21:49:59.961Z,18.36
2017-11-30T21:52:26.605Z,18.41
2017-11-30T21:54:53.217Z,18.33
2017-11-30T21:57:19.636Z,18.39
2017-11-30T21:59:46.152Z,18.35
2017-11-30T22:02:12.595Z,18.34
2017-11-30T22:04:38.973Z,18.32
2017-11-30T22:07:05.447Z,18.29
2017-11-30T22:09:32.052Z,18.32
2017-11-30T22:11:58.539Z,18.26
2017-11-30T22:14:24.914Z,18.29
2017-11-30T22:16:51.516Z,18.21
2017-11-30T22:19:17.963Z,18.24
2017-11-30T22:21:44.622Z,18.11
2017-11-30T22:24:11.246Z,18.13
2017-11-30T22:26:37.899Z,18.11
2017-11-30T22:29:04.171Z,18.17
2017-11-30T22:31:30.564Z,18.08
2017-11-30T22:33:56.991Z,18.06
2017-11-30T22:36:23.604Z,18.08
2017-11-30T22:38:50.048Z,18.10
2017-11-30T22:41:16.704Z,18.08
2017-11-30T22:43:43.335Z,18.09
2017-11-30T22:46:09.775Z,18.14
2017-11-30T22:48:36.206Z,18.12
2017-11-30T22:51:02.832Z,18.08
2017-11-30T22:53:29.489Z,18.10
2017-11-30T22:55:56.125Z,18.13
2017-11-30T22:58:22.612Z,18.17
2017-11-30T23:00:49.048Z,18.19
2017-11-30T23:03:15.400Z,18.23
2017-11-30T23:05:41.708Z,18.25
2017-11-30T23:08:08.079Z,18.28
2017-11-30T23:10:34.546Z,18.27
2017-11-30T23:13:00.798Z,18.29
2017-11-30T23:15:27.162Z,18.31
2017-11-30T23:17:53.364Z,18.34
2017-11-30T23:20:19.789Z,18.33
2017-11-30T23:22:46.225Z,18.28
2017-11-30T23:25:12.496Z,18.29
2017-11-30T23:27:38.786Z,18.31
2017-11-30T23:30:05.224Z,18.38
2017-11-30T23:32:31.799Z,18.34
2017-11-30T23:34:58.185Z,18.36
2017-11-30T23:37:24.368Z,18.44
2017-11-30T23:39:50.548Z,18.41
2017-11-30T23:42:16.901Z,18.37
2017-11-30T23:44:43.116Z,18.40
2017-11-30T23:47:09.563Z,18.38
2017-11-30T23:49:35.895Z,18.33
2017-11-30T23:52:02.279Z,18.37
2017-11-30T23:54:28.466Z,18.27
2017-11-30T23:56:54.687Z,18.24
2017-11-30T23:59:20.864Z,18.26
